Time;durP1;ratioP1;P1;durP2;ratioP2;P2;SDS_P1;SDS_P2;PMS_P1;PMS_P2;Temp;Humidity;BMP_temperature;BMP_pressure;BME280_temperature;BME280_humidity;BME280_pressure;Samples;Min_cycle;Max_cycle;Signal;HPM_P1;HPM_P2
2022/08/26 00:00:50;;;;;;;15.57;7.07;;;;;;;18.70;100.00;101445.84;4912538;29;20275;-41
2022/08/26 00:03:17;;;;;;;11.38;6.63;;;;;;;18.71;100.00;101456.59;4913253;29;20230;-41
2022/08/26 00:05:44;;;;;;;12.95;6.90;;;;;;;18.75;100.00;101441.00;4913454;29;20698;-47
2022/08/26 00:08:12;;;;;;;13.60;6.93;;;;;;;18.71;100.00;101445.72;4913386;29;20581;-44
2022/08/26 00:10:39;;;;;;;13.15;6.90;;;;;;;18.69;100.00;101441.38;4913310;29;20275;-43
2022/08/26 00:13:05;;;;;;;13.10;7.47;;;;;;;18.64;100.00;101441.66;4913129;29;20675;-48
2022/08/26 00:15:32;;;;;;;9.98;7.13;;;;;;;18.67;100.00;101446.03;4913295;29;20204;-46
2022/08/26 00:17:58;;;;;;;16.17;7.50;;;;;;;18.68;100.00;101437.78;4913199;29;20176;-44
2022/08/26 00:20:27;;;;;;;11.82;6.55;;;;;;;18.68;100.00;101445.06;4913058;29;20173;-45
2022/08/26 00:22:53;;;;;;;16.45;7.30;;;;;;;18.63;100.00;101439.94;4909761;29;20169;-43
2022/08/26 00:25:18;;;;;;;17.98;7.05;;;;;;;18.60;100.00;101450.97;4913104;29;20203;-43
2022/08/26 00:27:44;;;;;;;12.27;6.90;;;;;;;18.63;100.00;101433.63;4913282;29;20586;-45
2022/08/26 00:30:15;;;;;;;14.43;6.68;;;;;;;18.59;100.00;101434.81;4927500;29;20195;-45
2022/08/26 00:32:41;;;;;;;13.07;7.65;;;;;;;18.58;100.00;101438.47;4912130;29;20192;-43
2022/08/26 00:35:07;;;;;;;15.65;6.85;;;;;;;18.66;100.00;101434.31;4911838;29;20211;-44
2022/08/26 00:37:33;;;;;;;14.75;7.13;;;;;;;18.56;100.00;101435.84;4913041;29;20268;-44
2022/08/26 00:39:58;;;;;;;8.23;6.60;;;;;;;18.64;100.00;101430.81;4913000;29;20176;-44
2022/08/26 00:42:24;;;;;;;9.52;6.60;;;;;;;18.67;100.00;101429.75;4906557;29;20180;-47
2022/08/26 00:44:50;;;;;;;11.30;6.45;;;;;;;18.66;100.00;101437.03;4911459;29;20298;-46
2022/08/26 00:47:22;;;;;;;12.13;6.88;;;;;;;18.63;100.00;101431.78;4913027;29;20299;-44
2022/08/26 00:49:50;;;;;;;11.63;6.45;;;;;;;18.60;100.00;101431.09;4912691;29;20243;-48
2022/08/26 00:52:19;;;;;;;15.25;7.55;;;;;;;18.61;100.00;101430.16;4912689;29;20222;-45
2022/08/26 00:54:50;;;;;;;14.93;7.72;;;;;;;18.63;100.00;101426.38;4900000;28;20204;-47
2022/08/26 00:57:20;;;;;;;8.32;6.60;;;;;;;18.54;100.00;101421.50;4912961;29;20616;-44
2022/08/26 00:59:50;;;;;;;15.30;7.97;;;;;;;18.52;100.00;101427.03;4912726;29;20286;-43
2022/08/26 01:02:16;;;;;;;10.00;6.68;;;;;;;18.52;100.00;101421.59;4912639;29;20183;-44
2022/08/26 01:04:42;;;;;;;16.73;7.03;;;;;;;18.56;100.00;101433.13;4912690;29;20208;-45
2022/08/26 01:07:08;;;;;;;9.70;5.95;;;;;;;18.58;100.00;101427.59;4912454;29;20271;-43
2022/08/26 01:09:33;;;;;;;11.73;6.47;;;;;;;18.46;100.00;101431.97;4912640;29;20278;-44
2022/08/26 01:12:01;;;;;;;8.95;5.93;;;;;;;18.47;100.00;101431.00;4911313;29;20423;-49
2022/08/26 01:14:32;;;;;;;8.70;6.53;;;;;;;18.55;100.00;101425.09;4912253;29;20239;-50
2022/08/26 01:17:01;;;;;;;9.20;6.22;;;;;;;18.58;100.00;101428.47;4912671;29;20263;-45
2022/08/26 01:19:40;;;;;;;9.25;6.68;;;;;;;18.55;100.00;101422.38;4912145;29;20172;-45
2022/08/26 01:22:14;;;;;;;8.13;6.55;;;;;;;18.52;100.00;101426.16;4912426;29;20191;-46
2022/08/26 01:24:41;;;;;;;10.27;7.00;;;;;;;18.46;100.00;101426.53;4912227;29;20298;-45
2022/08/26 01:27:09;;;;;;;14.75;6.72;;;;;;;18.46;100.00;101435.53;4912313;29;20176;-46
2022/08/26 01:29:38;;;;;;;17.00;7.78;;;;;;;18.48;100.00;101428.19;4912186;29;20235;-46
2022/08/26 01:32:07;;;;;;;14.77;6.90;;;;;;;18.45;100.00;101424.78;4912188;29;20253;-45
2022/08/26 01:34:35;;;;;;;9.68;6.50;;;;;;;18.47;100.00;101415.56;4912207;29;20683;-43
2022/08/26 01:37:09;;;;;;;9.18;6.35;;;;;;;18.43;100.00;101429.44;4912226;29;20576;-48
2022/08/26 01:39:36;;;;;;;11.18;6.65;;;;;;;18.33;100.00;101430.00;4908846;29;20177;-45
2022/08/26 01:42:04;;;;;;;9.75;6.15;;;;;;;18.37;100.00;101427.97;4907004;29;20188;-44
2022/08/26 01:44:35;;;;;;;6.22;5.05;;;;;;;18.40;100.00;101425.06;4911670;29;20200;-43
2022/08/26 01:47:02;;;;;;;8.73;5.30;;;;;;;18.28;100.00;101426.72;4912078;29;20203;-48
2022/08/26 01:49:28;;;;;;;6.47;5.05;;;;;;;18.21;100.00;101427.16;4911804;28;20705;-43
2022/08/26 01:51:55;;;;;;;10.43;5.95;;;;;;;18.16;100.00;101432.00;4912166;29;20267;-44
2022/08/26 01:54:22;;;;;;;7.95;5.38;;;;;;;18.17;100.00;101428.31;4926179;28;20757;-45
2022/08/26 01:56:48;;;;;;;6.72;4.97;;;;;;;18.24;100.00;101429.69;4911012;29;20169;-46
2022/08/26 01:59:15;;;;;;;10.98;5.43;;;;;;;18.06;100.00;101424.44;4911844;29;20673;-45
2022/08/26 02:01:41;;;;;;;10.40;5.18;;;;;;;18.03;100.00;101418.31;4911535;29;20494;-46
2022/08/26 02:04:36;;;;;;;6.85;5.22;;;;;;;18.02;100.00;101422.84;4911470;29;20228;-49
2022/08/26 02:07:06;;;;;;;7.65;5.38;;;;;;;18.13;100.00;101414.06;4910274;29;20172;-44
2022/08/26 02:09:35;;;;;;;6.75;4.95;;;;;;;18.15;100.00;101419.38;4911635;29;20500;-44
2022/08/26 02:12:01;;;;;;;8.30;5.47;;;;;;;18.08;100.00;101413.47;4926043;29;20873;-44
2022/08/26 02:14:36;;;;;;;9.80;6.20;;;;;;;17.97;100.00;101422.25;4911723;29;20219;-43
2022/08/26 02:17:02;;;;;;;8.70;5.50;;;;;;;17.95;100.00;101423.31;4893033;29;20172;-45
2022/08/26 02:19:34;;;;;;;7.78;4.57;;;;;;;18.03;100.00;101426.44;4892572;29;20169;-46
2022/08/26 02:22:04;;;;;;;11.15;5.45;;;;;;;17.88;100.00;101414.66;4898577;29;20177;-45
2022/08/26 02:24:47;;;;;;;6.68;5.00;;;;;;;17.95;100.00;101417.88;4911390;28;20200;-49
2022/08/26 02:27:15;;;;;;;6.30;5.25;;;;;;;17.86;100.00;101414.78;4911650;29;20666;-47
2022/08/26 02:29:43;;;;;;;6.93;5.18;;;;;;;17.83;100.00;101409.53;4911541;29;20690;-46
2022/08/26 02:32:09;;;;;;;6.75;4.78;;;;;;;17.84;100.00;101403.16;4892777;29;20176;-46
2022/08/26 02:34:35;;;;;;;7.50;5.45;;;;;;;17.78;100.00;101417.03;4926015;28;20666;-44
2022/08/26 02:37:05;;;;;;;7.90;5.45;;;;;;;17.68;100.00;101416.69;4911178;28;20200;-44
2022/08/26 02:39:32;;;;;;;8.95;5.57;;;;;;;17.66;100.00;101421.31;4911457;29;20180;-44
2022/08/26 02:41:58;;;;;;;10.10;5.35;;;;;;;17.65;100.00;101416.00;4911339;29;20251;-45
2022/08/26 02:44:24;;;;;;;9.93;5.40;;;;;;;17.65;100.00;101411.44;4911244;29;20275;-47
2022/08/26 02:46:51;;;;;;;5.07;4.43;;;;;;;17.68;100.00;101415.81;4911528;29;20233;-45
2022/08/26 02:49:18;;;;;;;6.97;5.07;;;;;;;17.62;100.00;101411.66;4911074;29;20203;-49
2022/08/26 02:51:45;;;;;;;6.75;4.10;;;;;;;17.68;100.00;101413.97;4911635;29;20547;-46
2022/08/26 02:54:12;;;;;;;5.70;4.38;;;;;;;17.62;100.00;101405.31;4910975;28;20237;-49
2022/08/26 02:56:37;;;;;;;5.20;4.50;;;;;;;17.70;100.00;101409.34;4912978;29;20283;-46
2022/08/26 02:59:03;;;;;;;10.68;5.50;;;;;;;17.65;100.00;101408.75;4914333;29;20259;-49
2022/08/26 03:01:31;;;;;;;6.65;5.28;;;;;;;17.48;100.00;101406.16;4913055;29;20258;-45
2022/08/26 03:03:58;;;;;;;10.27;5.70;;;;;;;17.54;100.00;101399.50;4914489;28;20172;-44
2022/08/26 03:06:24;;;;;;;10.88;7.15;;;;;;;17.60;100.00;101418.09;4914698;29;20195;-49
2022/08/26 03:08:50;;;;;;;10.48;5.97;;;;;;;17.57;100.00;101412.88;4914384;28;20184;-45
2022/08/26 03:11:17;;;;;;;6.82;4.90;;;;;;;17.67;100.00;101404.09;4914293;29;20195;-50
2022/08/26 03:13:43;;;;;;;5.13;4.47;;;;;;;17.70;100.00;101401.19;4913995;29;20245;-44
2022/08/26 03:16:08;;;;;;;7.57;5.00;;;;;;;17.67;100.00;101395.97;4897420;28;20275;-46
2022/08/26 03:18:34;;;;;;;7.93;5.15;;;;;;;17.73;100.00;101385.72;4913798;29;20176;-50
2022/08/26 03:21:07;;;;;;;6.75;4.97;;;;;;;17.74;100.00;101392.91;4914294;29;20178;-45
2022/08/26 03:23:33;;;;;;;7.88;4.95;;;;;;;17.74;100.00;101393.78;4914092;29;20330;-47
2022/08/26 03:25:59;;;;;;;8.75;5.20;;;;;;;17.68;100.00;101397.72;4910385;29;20279;-46
2022/08/26 03:28:24;;;;;;;5.38;4.57;;;;;;;17.74;100.00;101388.34;4914154;29;20196;-48
2022/08/26 03:30:50;;;;;;;5.93;4.53;;;;;;;17.70;100.00;101384.94;4913936;29;20544;-44
2022/08/26 03:33:15;;;;;;;8.82;6.03;;;;;;;17.58;100.00;101388.41;4914076;28;20188;-45
2022/08/26 03:35:43;;;;;;;8.60;6.70;;;;;;;17.49;100.00;101378.06;4913723;29;20200;-46
2022/08/26 03:38:09;;;;;;;11.00;6.47;;;;;;;17.43;100.00;101379.31;4914311;29;20169;-44
2022/08/26 03:40:36;;;;;;;9.02;6.57;;;;;;;17.44;100.00;101385.59;4913905;29;20184;-48
2022/08/26 03:43:03;;;;;;;7.20;5.63;;;;;;;17.43;100.00;101383.88;4910952;29;20718;-46
2022/08/26 03:45:29;;;;;;;6.85;6.05;;;;;;;17.50;100.00;101377.13;4911971;29;20291;-44
2022/08/26 03:47:54;;;;;;;9.20;5.95;;;;;;;17.41;100.00;101385.78;4913096;29;20291;-50
2022/08/26 03:50:21;;;;;;;8.73;5.70;;;;;;;17.37;100.00;101384.22;4913120;29;20196;-44
2022/08/26 03:52:48;;;;;;;9.05;5.53;;;;;;;17.31;100.00;101377.31;4913700;29;20207;-49
2022/08/26 03:55:15;;;;;;;7.38;4.90;;;;;;;17.33;100.00;101380.81;4910994;29;20204;-49
2022/08/26 03:57:41;;;;;;;7.13;5.20;;;;;;;17.37;100.00;101381.50;4912559;29;20185;-47
2022/08/26 04:00:13;;;;;;;5.07;4.30;;;;;;;17.46;100.00;101384.53;4911221;29;20189;-49
2022/08/26 04:02:38;;;;;;;6.65;4.80;;;;;;;17.43;100.00;101382.03;4910719;29;20184;-48
2022/08/26 04:05:04;;;;;;;8.38;6.03;;;;;;;17.34;100.00;101379.88;4912577;29;20608;-48
2022/08/26 04:07:32;;;;;;;9.45;6.43;;;;;;;17.20;100.00;101383.34;4910411;29;20275;-50
2022/08/26 04:09:58;;;;;;;11.00;7.45;;;;;;;17.22;100.00;101377.84;4909299;29;20717;-47
2022/08/26 04:12:25;;;;;;;12.07;7.00;;;;;;;17.29;100.00;101374.72;4912654;29;20192;-48
2022/08/26 04:14:51;;;;;;;7.38;5.75;;;;;;;17.38;100.00;101378.72;4927200;29;20263;-48
2022/08/26 04:17:18;;;;;;;11.32;6.78;;;;;;;17.24;100.00;101375.94;4913137;29;20255;-47
2022/08/26 04:19:43;;;;;;;7.15;6.10;;;;;;;17.26;100.00;101384.84;4911853;28;20188;-50
2022/08/26 04:22:09;;;;;;;8.05;5.88;;;;;;;17.22;100.00;101377.84;4910074;29;20223;-48
2022/08/26 04:24:35;;;;;;;5.40;4.43;;;;;;;17.28;100.00;101370.25;4909067;29;20196;-48
2022/08/26 04:27:04;;;;;;;8.27;5.32;;;;;;;17.28;100.00;101382.91;4906552;29;20193;-47
2022/08/26 04:29:29;;;;;;;9.23;5.63;;;;;;;17.18;100.00;101374.44;4905263;29;20169;-48
2022/08/26 04:31:55;;;;;;;11.65;6.78;;;;;;;17.28;100.00;101369.38;4905248;29;20196;-49
2022/08/26 04:34:25;;;;;;;11.07;6.97;;;;;;;17.27;100.00;101379.34;4907333;29;20592;-48
2022/08/26 04:36:51;;;;;;;8.60;5.53;;;;;;;17.23;100.00;101379.59;4912513;29;20243;-49
2022/08/26 04:39:19;;;;;;;6.65;5.22;;;;;;;17.33;100.00;101369.09;4911738;29;20196;-48
2022/08/26 04:41:45;;;;;;;6.18;5.45;;;;;;;17.37;100.00;101368.84;4912532;29;20179;-49
2022/08/26 04:44:11;;;;;;;5.45;4.95;;;;;;;17.39;100.00;101376.88;4911020;29;20212;-48
2022/08/26 04:46:37;;;;;;;7.15;5.13;;;;;;;17.42;100.00;101376.69;4912294;29;20546;-48
2022/08/26 04:49:03;;;;;;;5.20;4.65;;;;;;;17.46;100.00;101371.00;4911333;29;20555;-48
2022/08/26 04:51:29;;;;;;;6.05;5.20;;;;;;;17.48;100.00;101376.34;4912307;29;20206;-50
2022/08/26 04:53:56;;;;;;;10.18;6.75;;;;;;;17.42;100.00;101369.44;4911923;28;20294;-48
2022/08/26 04:56:28;;;;;;;6.53;5.47;;;;;;;17.55;100.00;101361.47;4912382;29;20275;-49
2022/08/26 04:58:54;;;;;;;7.18;5.93;;;;;;;17.58;100.00;101363.13;4908485;29;20666;-48
2022/08/26 05:01:20;;;;;;;9.20;6.88;;;;;;;17.61;100.00;101374.66;4911786;29;20215;-48
2022/08/26 05:03:47;;;;;;;6.57;5.43;;;;;;;17.66;100.00;101377.94;4911709;29;20639;-49
2022/08/26 05:06:13;;;;;;;6.68;5.43;;;;;;;17.70;100.00;101379.53;4923909;29;20195;-47
2022/08/26 05:08:38;;;;;;;9.75;6.30;;;;;;;17.64;100.00;101362.75;4910873;29;20191;-46
2022/08/26 05:11:05;;;;;;;6.10;5.53;;;;;;;17.66;100.00;101366.25;4906962;28;20567;-47
2022/08/26 05:13:31;;;;;;;7.38;5.78;;;;;;;17.72;100.00;101360.47;4926607;28;20686;-48
2022/08/26 05:16:03;;;;;;;6.68;5.68;;;;;;;17.80;100.00;101370.84;4912060;28;20620;-47
2022/08/26 05:18:29;;;;;;;11.10;7.70;;;;;;;17.84;100.00;101367.00;4909619;29;20196;-49
2022/08/26 05:20:54;;;;;;;12.13;8.05;;;;;;;17.84;100.00;101370.63;4910267;29;20188;-48
2022/08/26 05:23:21;;;;;;;10.10;8.00;;;;;;;17.91;100.00;101363.00;4909853;29;20649;-47
2022/08/26 05:25:51;;;;;;;9.82;7.93;;;;;;;17.94;100.00;101365.50;4911804;29;20199;-47
2022/08/26 05:28:18;;;;;;;10.05;8.45;;;;;;;18.00;100.00;101381.41;4912071;29;20192;-50
2022/08/26 05:30:44;;;;;;;11.00;8.15;;;;;;;18.02;100.00;101371.34;4910301;29;20192;-41
2022/08/26 05:33:10;;;;;;;13.30;8.80;;;;;;;18.09;100.00;101377.25;4912215;29;20195;-49
2022/08/26 05:35:37;;;;;;;14.18;8.90;;;;;;;18.15;100.00;101371.47;4908739;29;20207;-47
2022/08/26 05:38:08;;;;;;;12.85;10.20;;;;;;;18.20;100.00;101373.91;4911925;29;20180;-46
2022/08/26 05:40:36;;;;;;;13.93;9.40;;;;;;;18.22;100.00;101371.97;4911833;28;20196;-48
2022/08/26 05:43:06;;;;;;;18.42;10.65;;;;;;;18.26;100.00;101368.09;4912364;29;20180;-48
2022/08/26 05:45:32;;;;;;;29.35;14.40;;;;;;;18.31;100.00;101368.66;4912139;28;20212;-49
2022/08/26 05:47:57;;;;;;;23.48;14.48;;;;;;;18.40;100.00;101373.53;4911858;29;20222;-45
2022/08/26 05:50:24;;;;;;;25.02;15.05;;;;;;;18.38;100.00;101361.88;4912158;28;20191;-47
2022/08/26 05:52:50;;;;;;;30.10;16.27;;;;;;;18.45;100.00;101367.81;4912027;29;20196;-46
2022/08/26 05:55:16;;;;;;;31.00;17.35;;;;;;;18.56;100.00;101358.97;4911872;29;20807;-45
2022/08/26 05:57:43;;;;;;;23.23;17.25;;;;;;;18.59;100.00;101350.66;4912020;29;20222;-45
2022/08/26 06:00:10;;;;;;;21.70;17.05;;;;;;;18.74;100.00;101355.97;4911593;29;20663;-44
2022/08/26 06:02:38;;;;;;;32.28;20.48;;;;;;;18.64;100.00;101362.09;4911625;29;20232;-46
2022/08/26 06:05:04;;;;;;;28.55;20.00;;;;;;;18.63;100.00;101363.94;4896379;29;20200;-45
2022/08/26 06:10:35;;;;;;;28.02;21.83;;;;;;;18.82;100.00;101370.94;4888670;29;20216;-44
2022/08/26 06:13:00;;;;;;;27.00;21.85;;;;;;;18.83;100.00;101376.28;4895951;29;20213;-44
2022/08/26 06:15:26;;;;;;;26.80;22.85;;;;;;;18.88;100.00;101354.25;4899891;28;20223;-45
2022/08/26 06:17:52;;;;;;;33.60;23.05;;;;;;;18.89;100.00;101366.84;4911507;29;20180;-46
2022/08/26 06:20:18;;;;;;;30.48;23.23;;;;;;;18.96;100.00;101357.34;4912033;29;20168;-48
2022/08/26 06:25:39;;;;;;;29.77;22.50;;;;;;;19.06;100.00;101365.75;4911867;29;20187;-48
2022/08/26 06:28:05;;;;;;;28.40;21.58;;;;;;;19.13;100.00;101359.84;4912010;29;20184;-45
2022/08/26 06:30:33;;;;;;;23.42;20.95;;;;;;;19.14;100.00;101369.72;4909892;28;20176;-46
2022/08/26 06:32:59;;;;;;;27.73;21.02;;;;;;;19.26;100.00;101367.16;4911902;29;20686;-45
2022/08/26 06:35:25;;;;;;;28.00;23.05;;;;;;;19.22;100.00;101358.34;4991549;28;20208;-45
2022/08/26 06:37:50;;;;;;;26.75;20.85;;;;;;;19.31;100.00;101360.44;4911187;29;20211;-45
2022/08/26 06:40:16;;;;;;;25.23;21.02;;;;;;;19.32;100.00;101366.75;4910939;28;20236;-50
2022/08/26 06:42:41;;;;;;;24.02;21.20;;;;;;;19.37;100.00;101358.28;4907482;29;20266;-45
2022/08/26 06:45:07;;;;;;;26.55;21.45;;;;;;;19.39;100.00;101370.78;4911206;29;20302;-46
2022/08/26 06:47:33;;;;;;;25.77;21.55;;;;;;;19.54;100.00;101360.75;4913107;29;20184;-46
2022/08/26 06:49:58;;;;;;;26.58;21.02;;;;;;;19.64;100.00;101359.16;4909720;29;20245;-48
2022/08/26 06:52:24;;;;;;;22.10;17.90;;;;;;;19.82;100.00;101364.34;4910862;28;20196;-45
2022/08/26 06:54:49;;;;;;;22.40;20.20;;;;;;;19.94;100.00;101363.47;4911211;29;20259;-47
2022/08/26 06:57:15;;;;;;;20.60;18.50;;;;;;;20.06;100.00;101368.09;4911060;29;20180;-49
2022/08/26 06:59:41;;;;;;;22.27;18.33;;;;;;;20.17;100.00;101360.03;4910889;29;20532;-46
2022/08/26 07:02:06;;;;;;;22.77;18.52;;;;;;;20.08;100.00;101374.28;4910970;28;20227;-45
2022/08/26 07:04:32;;;;;;;20.58;18.38;;;;;;;20.08;100.00;101357.97;4910471;29;20204;-44
2022/08/26 07:06:58;;;;;;;19.40;17.05;;;;;;;20.22;100.00;101354.25;4908030;29;20656;-46
2022/08/26 07:09:27;;;;;;;23.27;18.92;;;;;;;20.47;100.00;101355.28;4907691;29;20184;-48
2022/08/26 07:11:54;;;;;;;22.10;18.02;;;;;;;20.75;100.00;101357.78;4903068;29;20225;-46
2022/08/26 07:14:20;;;;;;;18.77;16.83;;;;;;;21.25;100.00;101352.28;4909689;29;20657;-48
2022/08/26 07:16:46;;;;;;;17.58;14.52;;;;;;;21.45;100.00;101356.28;4903826;29;20208;-44
2022/08/26 07:19:12;;;;;;;16.48;13.50;;;;;;;21.49;100.00;101362.34;4921350;28;20545;-48
2022/08/26 07:21:40;;;;;;;20.00;15.95;;;;;;;21.45;nan;101372.63;4905512;29;20574;-48
2022/08/26 07:24:06;;;;;;;16.90;14.93;;;;;;;21.58;100.00;101364.38;4910910;29;20207;-45
2022/08/26 07:26:31;;;;;;;17.38;15.20;;;;;;;21.66;100.00;101361.94;4906502;28;20199;-45
2022/08/26 07:28:58;;;;;;;16.60;14.75;;;;;;;21.81;100.00;101366.19;4910125;28;20234;-48
2022/08/26 07:31:25;;;;;;;21.95;15.38;;;;;;;21.88;100.00;101363.00;4910598;29;20188;-46
2022/08/26 07:33:52;;;;;;;19.85;15.05;;;;;;;22.05;100.00;101368.03;4909862;29;20290;-45
2022/08/26 07:36:19;;;;;;;19.02;14.95;;;;;;;22.05;100.00;101383.53;4910714;29;20304;-44
2022/08/26 07:38:46;;;;;;;17.50;13.40;;;;;;;22.26;98.72;101375.53;4906612;29;20188;-42
2022/08/26 07:41:13;;;;;;;16.20;12.75;;;;;;;22.13;98.12;101372.91;4911201;29;20203;-44
2022/08/26 07:43:39;;;;;;;14.95;13.38;;;;;;;21.95;98.68;101383.38;4913754;29;20184;-43
2022/08/26 07:46:06;;;;;;;18.17;12.57;;;;;;;22.09;98.44;101379.59;4913568;29;20265;-43
2022/08/26 07:48:33;;;;;;;22.48;13.35;;;;;;;21.77;98.87;101377.47;4913176;29;20191;-41
2022/08/26 07:50:58;;;;;;;14.30;12.70;;;;;;;21.65;99.73;101381.16;4913194;29;20210;-43
2022/08/26 07:53:24;;;;;;;16.80;13.43;;;;;;;21.55;100.00;101379.09;4905093;28;20567;-45
2022/08/26 07:55:50;;;;;;;20.08;14.10;;;;;;;21.55;100.00;101372.78;4911795;28;20690;-44
2022/08/26 07:58:16;;;;;;;13.25;11.85;;;;;;;21.76;100.00;101373.88;4906920;29;20188;-44
2022/08/26 08:00:42;;;;;;;15.30;11.45;;;;;;;21.90;100.00;101372.81;4911609;29;20199;-42
2022/08/26 08:03:07;;;;;;;14.68;11.40;;;;;;;22.41;99.63;101361.56;4912984;29;20191;-42
2022/08/26 08:05:35;;;;;;;15.20;10.90;;;;;;;22.88;95.74;101371.50;4913389;29;20234;-44
2022/08/26 08:08:03;;;;;;;15.60;11.00;;;;;;;23.14;93.91;101363.91;4913519;29;20271;-43
2022/08/26 08:10:29;;;;;;;14.88;10.30;;;;;;;23.03;92.15;101375.75;4912270;29;20200;-43
2022/08/26 08:12:56;;;;;;;13.40;10.15;;;;;;;23.38;91.52;101367.34;4909143;28;20207;-43
2022/08/26 08:15:25;;;;;;;11.52;9.55;;;;;;;23.69;89.77;101352.94;4912988;29;20208;-45
2022/08/26 08:17:51;;;;;;;14.30;9.63;;;;;;;23.67;89.26;101368.59;4913321;29;20195;-43
2022/08/26 08:20:17;;;;;;;15.80;9.73;;;;;;;23.54;89.17;101361.44;4913051;29;20600;-43
2022/08/26 08:22:43;;;;;;;14.15;10.13;;;;;;;23.69;88.03;101355.66;4913570;29;20610;-44
2022/08/26 08:25:11;;;;;;;17.70;9.95;;;;;;;24.08;88.14;101364.22;4913841;29;20243;-42
2022/08/26 08:27:37;;;;;;;15.27;8.82;;;;;;;24.28;86.59;101357.84;4913024;29;20198;-43
2022/08/26 08:30:05;;;;;;;11.05;8.88;;;;;;;24.41;85.65;101347.53;4912885;29;20559;-44
2022/08/26 08:32:30;;;;;;;14.35;10.35;;;;;;;24.17;84.38;101353.31;4912946;28;20562;-45
2022/08/26 08:34:57;;;;;;;14.43;9.90;;;;;;;24.26;85.63;101354.38;4908039;29;20220;-43
2022/08/26 08:37:23;;;;;;;11.75;8.95;;;;;;;24.50;85.08;101358.72;4907737;29;20215;-42
2022/08/26 08:39:48;;;;;;;20.30;9.23;;;;;;;24.36;84.29;101362.63;4909166;29;20230;-42
2022/08/26 08:42:49;;;;;;;14.40;9.75;;;;;;;24.65;83.82;101358.22;4915249;29;20191;-43
2022/08/26 08:45:41;;;;;;;18.20;8.82;;;;;;;24.74;83.44;101364.75;4917851;29;20773;-44
2022/08/26 08:48:25;;;;;;;14.13;9.00;;;;;;;24.55;83.90;101371.00;4908484;29;20202;-44
2022/08/26 08:51:03;;;;;;;14.82;8.88;;;;;;;24.81;84.28;101362.31;4911895;29;20187;-44
2022/08/26 08:53:31;;;;;;;12.52;9.20;;;;;;;24.72;82.63;101354.94;4910463;29;20306;-45
2022/08/26 08:56:14;;;;;;;9.82;8.80;;;;;;;24.58;83.49;101365.25;4907406;29;20208;-44
2022/08/26 08:59:06;;;;;;;14.18;8.88;;;;;;;24.75;83.18;101362.88;4912525;29;20278;-43
2022/08/26 09:01:50;;;;;;;11.20;7.90;;;;;;;24.88;83.32;101358.00;4912161;29;20183;-44
2022/08/26 09:04:31;;;;;;;14.55;8.18;;;;;;;25.03;82.24;101359.34;4912721;29;20717;-44
2022/08/26 09:06:59;;;;;;;10.65;7.63;;;;;;;25.22;81.75;101363.22;4912417;29;20207;-42
2022/08/26 09:09:36;;;;;;;11.77;7.88;;;;;;;25.26;81.98;101359.19;4912340;29;20254;-44
2022/08/26 09:12:03;;;;;;;10.52;7.50;;;;;;;25.40;80.64;101353.25;4912465;29;20294;-44
2022/08/26 09:14:30;;;;;;;10.13;7.63;;;;;;;26.19;79.91;101349.50;4912704;28;20596;-43
2022/08/26 09:17:14;;;;;;;15.15;7.45;;;;;;;25.84;77.88;101350.09;4906157;29;20278;-44
2022/08/26 09:20:09;;;;;;;13.55;6.43;;;;;;;25.66;78.95;101347.22;4909188;29;20386;-44
2022/08/26 09:22:36;;;;;;;11.88;6.22;;;;;;;25.58;79.88;101358.03;4907946;28;20219;-44
2022/08/26 09:25:07;;;;;;;13.95;6.88;;;;;;;25.67;78.94;101346.19;4919792;28;20694;-43
2022/08/26 09:27:43;;;;;;;17.85;7.45;;;;;;;25.09;80.73;101346.97;4904867;29;20279;-44
2022/08/26 09:30:19;;;;;;;9.90;6.63;;;;;;;25.10;80.03;101345.94;4900977;29;20219;-43
2022/08/26 09:33:06;;;;;;;11.43;6.85;;;;;;;25.07;80.46;101338.88;4924639;29;20728;-43
2022/08/26 09:35:34;;;;;;;13.02;7.00;;;;;;;24.77;82.22;101342.53;4908900;29;20219;-44
2022/08/26 09:38:00;;;;;;;11.43;6.97;;;;;;;24.79;83.17;101340.53;4912205;28;20732;-44
2022/08/26 09:40:33;;;;;;;11.05;7.80;;;;;;;25.02;82.68;101338.44;4911866;29;20279;-43
2022/08/26 09:43:18;;;;;;;10.50;6.15;;;;;;;25.06;82.27;101334.41;4911011;29;20713;-44
2022/08/26 09:46:09;;;;;;;14.07;7.22;;;;;;;25.02;81.48;101332.09;4910438;28;20721;-44
2022/08/26 09:48:38;;;;;;;15.15;7.45;;;;;;;25.11;81.66;101334.00;4912980;28;20207;-42
2022/08/26 09:51:23;;;;;;;12.93;6.93;;;;;;;25.11;80.56;101338.63;4910799;29;20199;-42
2022/08/26 09:53:51;;;;;;;10.90;7.85;;;;;;;25.06;82.33;101328.94;4908486;28;20215;-43
2022/08/26 09:56:26;;;;;;;9.25;7.00;;;;;;;25.17;81.72;101318.88;4911740;29;20610;-42
2022/08/26 09:58:53;;;;;;;14.90;7.40;;;;;;;25.23;81.25;101324.69;4911617;29;20229;-42
2022/08/26 10:01:22;;;;;;;13.77;7.55;;;;;;;25.27;81.69;101311.53;4911654;29;20230;-42
2022/08/26 10:03:48;;;;;;;13.40;6.72;;;;;;;25.84;80.27;101306.19;4910238;29;20179;-43
2022/08/26 10:06:18;;;;;;;10.43;6.85;;;;;;;26.01;78.65;101310.94;4925994;29;20721;-42
2022/08/26 10:08:51;;;;;;;9.30;6.43;;;;;;;26.50;77.76;101319.94;4911282;29;20187;-43
2022/08/26 10:11:19;;;;;;;13.63;6.93;;;;;;;25.96;76.40;101320.66;4911779;29;20207;-43
2022/08/26 10:13:55;;;;;;;12.52;6.60;;;;;;;25.98;78.24;101314.00;4911397;28;20198;-43
2022/08/26 10:16:26;;;;;;;12.73;5.90;;;;;;;25.76;78.17;101326.13;4911634;29;20221;-41
2022/08/26 10:19:00;;;;;;;10.57;6.40;;;;;;;25.91;77.41;101323.84;4911218;29;20218;-41
2022/08/26 10:21:31;;;;;;;12.98;6.05;;;;;;;25.77;77.40;101321.50;4911926;29;20203;-43
2022/08/26 10:24:00;;;;;;;10.38;5.65;;;;;;;25.94;76.37;101318.06;4911418;29;20298;-42
2022/08/26 10:26:37;;;;;;;8.50;6.57;;;;;;;26.39;75.07;101316.47;4907807;29;20274;-42
2022/08/26 10:29:14;;;;;;;13.88;6.55;;;;;;;26.02;75.38;101309.06;4910785;29;20263;-44
2022/08/26 10:31:52;;;;;;;11.05;6.50;;;;;;;25.95;76.13;101313.41;4910785;29;20678;-43
2022/08/26 10:34:17;;;;;;;9.88;6.30;;;;;;;25.76;76.52;101317.00;4899658;29;20223;-42
2022/08/26 10:37:02;;;;;;;13.35;6.22;;;;;;;26.04;74.42;101315.28;4911342;29;20190;-44
2022/08/26 10:39:40;;;;;;;10.85;5.65;;;;;;;26.65;72.89;101301.06;4910928;29;20655;-41
2022/08/26 10:42:12;;;;;;;13.00;5.72;;;;;;;26.64;72.62;101299.34;4909026;29;20207;-42
2022/08/26 10:44:40;;;;;;;12.05;5.63;;;;;;;27.13;71.43;101297.19;4911125;29;20207;-43
2022/08/26 10:47:18;;;;;;;9.38;5.68;;;;;;;27.45;70.90;101289.44;4911417;29;20562;-44
2022/08/26 10:49:45;;;;;;;12.23;6.00;;;;;;;27.41;69.65;101283.38;4907141;28;20303;-42
2022/08/26 10:52:38;;;;;;;18.25;6.00;;;;;;;27.20;70.33;101289.19;4931429;28;20547;-43
2022/08/26 10:55:24;;;;;;;14.65;5.93;;;;;;;27.23;69.79;101283.38;4906584;29;20299;-48
2022/08/26 10:58:00;;;;;;;11.07;5.53;;;;;;;26.60;71.27;101284.19;4910810;29;20738;-47
2022/08/26 11:03:26;;;;;;;10.68;5.55;;;;;;;27.45;69.82;101275.69;4908942;29;20180;-48
2022/08/26 11:06:27;;;;;;;10.38;5.40;;;;;;;27.78;69.61;101275.97;4911114;28;20317;-46
2022/08/26 11:08:56;;;;;;;9.88;5.60;;;;;;;27.65;70.40;101279.97;4910612;29;20180;-46
2022/08/26 11:11:41;;;;;;;14.82;5.65;;;;;;;27.59;68.71;101274.25;4911119;29;20196;-47
2022/08/26 11:14:29;;;;;;;12.07;5.13;;;;;;;27.21;69.94;101276.28;4928900;28;20579;-47
2022/08/26 11:16:58;;;;;;;12.35;5.43;;;;;;;27.12;70.58;101269.84;4912715;29;20188;-43
2022/08/26 11:19:41;;;;;;;8.85;4.95;;;;;;;26.91;70.90;101267.34;4913546;29;20271;-45
2022/08/26 11:22:28;;;;;;;10.70;5.13;;;;;;;26.84;71.32;101263.50;4912389;29;20176;-45
2022/08/26 11:24:53;;;;;;;11.95;5.18;;;;;;;26.78;71.19;101266.88;4910422;29;20710;-45
2022/08/26 11:27:22;;;;;;;8.40;4.63;;;;;;;27.22;69.86;101267.91;4908095;29;20277;-45
2022/08/26 11:30:00;;;;;;;13.52;4.82;;;;;;;26.86;69.43;101256.81;4909162;29;20554;-45